Time;durP1;ratioP1;P1;durP2;ratioP2;P2;SDS_P1;SDS_P2;PMS_P1;PMS_P2;Temp;Humidity;BMP_temperature;BMP_pressure;BME280_temperature;BME280_humidity;BME280_pressure;Samples;Min_cycle;Max_cycle;Signal;HPM_P1;HPM_P2
2022/03/17 00:01:21;;;;;;;53.70;24.75;;;;;;;;;;4949819;28;20100;-62
2022/03/17 00:03:46;;;;;;;60.42;24.50;;;;;;;;;;4950274;28;20542;-62
2022/03/17 00:06:13;;;;;;;57.83;23.95;;;;;;;;;;4949654;28;20492;-62
2022/03/17 00:08:39;;;;;;;63.38;26.08;;;;;;;;;;4950383;28;20065;-62
2022/03/17 00:11:04;;;;;;;61.55;26.33;;;;;;;;;;4949686;28;20579;-62
2022/03/17 00:13:30;;;;;;;59.17;25.73;;;;;;;;;;4951085;28;20318;-62
2022/03/17 00:15:56;;;;;;;60.35;25.48;;;;;;;;;;4950121;28;20329;-63
2022/03/17 00:18:21;;;;;;;62.75;26.33;;;;;;;;;;4949398;28;20369;-62
2022/03/17 00:20:47;;;;;;;59.10;25.50;;;;;;;;;;4949464;28;20373;-62
2022/03/17 00:23:12;;;;;;;53.30;25.60;;;;;;;;;;4950068;28;20033;-62
2022/03/17 00:25:38;;;;;;;60.97;26.42;;;;;;;;;;4949551;28;20029;-62
2022/03/17 00:28:03;;;;;;;65.85;28.13;;;;;;;;;;4950232;28;20120;-62
2022/03/17 00:30:29;;;;;;;63.88;26.58;;;;;;;;;;4951559;28;20313;-62
2022/03/17 00:32:54;;;;;;;59.85;26.10;;;;;;;;;;4953337;28;20397;-62
2022/03/17 00:35:35;;;;;;;58.92;25.65;;;;;;;;;;4953771;28;20489;-62
2022/03/17 00:38:08;;;;;;;57.95;26.58;;;;;;;;;;4953671;28;20029;-62
2022/03/17 00:40:38;;;;;;;52.90;26.13;;;;;;;;;;4953615;28;20464;-62
2022/03/17 00:43:04;;;;;;;58.58;26.27;;;;;;;;;;4953184;28;20556;-62
2022/03/17 00:45:30;;;;;;;56.30;25.75;;;;;;;;;;4953495;28;20346;-62
2022/03/17 00:47:55;;;;;;;51.95;24.17;;;;;;;;;;4953263;28;20321;-62
2022/03/17 00:50:22;;;;;;;54.88;24.88;;;;;;;;;;4954580;28;20491;-62
2022/03/17 00:52:48;;;;;;;58.67;24.83;;;;;;;;;;4954196;28;20457;-62
2022/03/17 00:55:14;;;;;;;59.30;25.40;;;;;;;;;;4953092;28;20487;-62
2022/03/17 00:57:40;;;;;;;47.97;23.58;;;;;;;;;;4953757;28;20452;-62
2022/03/17 01:00:08;;;;;;;58.38;24.67;;;;;;;;;;4956790;28;20405;-62
2022/03/17 01:02:34;;;;;;;55.92;24.83;;;;;;;;;;4961847;28;20057;-62
2022/03/17 01:04:59;;;;;;;53.33;24.20;;;;;;;;;;4953700;28;20493;-62
2022/03/17 01:07:24;;;;;;;54.53;24.98;;;;;;;;;;4954883;28;20310;-62
2022/03/17 01:09:50;;;;;;;55.65;25.08;;;;;;;;;;4952735;28;20441;-62
2022/03/17 01:12:15;;;;;;;52.03;24.42;;;;;;;;;;4953096;28;20524;-62
2022/03/17 01:14:40;;;;;;;53.22;23.33;;;;;;;;;;4953929;28;20377;-62
2022/03/17 01:17:06;;;;;;;54.15;23.20;;;;;;;;;;4953149;28;20345;-62
2022/03/17 01:19:31;;;;;;;58.80;24.45;;;;;;;;;;4953365;28;20314;-62
2022/03/17 01:21:56;;;;;;;53.25;24.52;;;;;;;;;;4952863;28;20403;-62
2022/03/17 01:24:22;;;;;;;51.13;23.15;;;;;;;;;;4952940;28;20382;-65
2022/03/17 01:26:47;;;;;;;56.47;25.60;;;;;;;;;;4953006;28;20030;-62
2022/03/17 01:29:13;;;;;;;52.70;23.50;;;;;;;;;;4952483;28;20373;-62
2022/03/17 01:31:38;;;;;;;56.17;24.90;;;;;;;;;;4953604;28;20429;-62
2022/03/17 01:34:04;;;;;;;54.33;25.15;;;;;;;;;;4952323;28;20392;-62
2022/03/17 01:36:29;;;;;;;51.65;24.33;;;;;;;;;;4952575;28;20441;-62
2022/03/17 01:38:54;;;;;;;58.28;23.85;;;;;;;;;;4952895;28;20464;-62
2022/03/17 01:41:20;;;;;;;53.55;25.20;;;;;;;;;;4951934;28;20400;-62
2022/03/17 01:43:46;;;;;;;50.42;23.80;;;;;;;;;;4953843;28;20385;-62
2022/03/17 01:46:14;;;;;;;48.30;23.58;;;;;;;;;;4952727;28;20341;-62
2022/03/17 01:48:39;;;;;;;51.72;22.45;;;;;;;;;;4952781;28;20353;-62
2022/03/17 01:51:05;;;;;;;48.38;24.17;;;;;;;;;;4952027;28;20330;-62
2022/03/17 01:53:30;;;;;;;57.20;23.75;;;;;;;;;;4952100;28;20460;-62
2022/03/17 01:55:57;;;;;;;47.65;21.30;;;;;;;;;;4951823;28;20388;-62
2022/03/17 01:58:24;;;;;;;47.53;23.88;;;;;;;;;;4934862;28;20503;-62
2022/03/17 02:00:50;;;;;;;48.47;22.23;;;;;;;;;;4951966;28;20377;-62
2022/03/17 02:03:15;;;;;;;44.60;22.27;;;;;;;;;;4951849;28;20453;-62
2022/03/17 02:05:41;;;;;;;54.90;23.83;;;;;;;;;;4952257;28;20445;-62
2022/03/17 02:08:10;;;;;;;42.63;21.05;;;;;;;;;;4934323;28;20026;-62
2022/03/17 02:13:20;;;;;;;55.55;24.05;;;;;;;;;;4952456;28;20444;-63
2022/03/17 02:15:51;;;;;;;48.88;22.27;;;;;;;;;;4951563;28;20438;-62
2022/03/17 02:18:17;;;;;;;49.40;23.13;;;;;;;;;;4951958;28;20444;-62
2022/03/17 02:20:43;;;;;;;45.05;22.73;;;;;;;;;;4951581;28;20038;-62
2022/03/17 02:25:57;;;;;;;53.03;22.90;;;;;;;;;;4952795;28;20357;-62
2022/03/17 02:28:23;;;;;;;44.38;21.70;;;;;;;;;;4951959;28;20325;-62
2022/03/17 02:30:48;;;;;;;43.67;21.75;;;;;;;;;;4951455;28;20052;-62
2022/03/17 02:33:17;;;;;;;44.75;22.38;;;;;;;;;;4951157;28;20441;-62
2022/03/17 02:35:44;;;;;;;47.93;22.87;;;;;;;;;;4951399;28;20360;-62
2022/03/17 02:38:14;;;;;;;40.95;21.00;;;;;;;;;;4951245;28;20460;-62
2022/03/17 02:40:40;;;;;;;44.67;22.00;;;;;;;;;;4951268;28;20469;-62
2022/03/17 02:43:06;;;;;;;43.78;22.70;;;;;;;;;;4951614;28;20401;-62
2022/03/17 02:45:32;;;;;;;43.65;21.98;;;;;;;;;;4951336;28;20394;-62
2022/03/17 02:47:57;;;;;;;39.85;19.60;;;;;;;;;;4951391;28;20322;-63
2022/03/17 02:50:24;;;;;;;46.72;23.50;;;;;;;;;;4950643;28;20457;-62
2022/03/17 02:52:49;;;;;;;45.00;21.27;;;;;;;;;;4951936;28;20434;-62
2022/03/17 02:55:15;;;;;;;47.70;22.48;;;;;;;;;;4951304;28;20449;-62
2022/03/17 02:57:42;;;;;;;47.53;20.48;;;;;;;;;;4951121;28;20464;-62
2022/03/17 03:00:09;;;;;;;45.50;22.35;;;;;;;;;;4951913;28;20378;-62
2022/03/17 03:02:35;;;;;;;50.38;22.92;;;;;;;;;;4951653;28;20376;-62
2022/03/17 03:05:01;;;;;;;44.97;21.65;;;;;;;;;;4951309;28;20333;-62
2022/03/17 03:07:26;;;;;;;41.05;21.67;;;;;;;;;;4952739;28;20302;-62
2022/03/17 03:09:52;;;;;;;46.63;22.88;;;;;;;;;;4950828;28;20359;-62
2022/03/17 03:12:17;;;;;;;45.65;22.60;;;;;;;;;;4951669;28;20422;-62
2022/03/17 03:14:43;;;;;;;48.22;23.20;;;;;;;;;;4950877;28;20376;-62
2022/03/17 03:17:08;;;;;;;42.78;21.98;;;;;;;;;;4951807;28;20400;-62
2022/03/17 03:19:34;;;;;;;48.53;22.63;;;;;;;;;;4950202;28;20401;-61
2022/03/17 03:21:59;;;;;;;46.42;22.95;;;;;;;;;;4951230;28;20447;-62
2022/03/17 03:24:25;;;;;;;43.05;22.23;;;;;;;;;;4950743;28;20418;-62
2022/03/17 03:26:51;;;;;;;43.60;22.45;;;;;;;;;;4951078;28;20365;-62
2022/03/17 03:29:22;;;;;;;42.20;21.60;;;;;;;;;;4950491;28;20435;-62
2022/03/17 03:31:52;;;;;;;39.88;20.92;;;;;;;;;;4950616;28;20457;-62
2022/03/17 03:34:18;;;;;;;40.40;22.08;;;;;;;;;;4950483;28;20396;-62
2022/03/17 03:39:28;;;;;;;44.88;21.67;;;;;;;;;;4950062;28;20084;-62
2022/03/17 03:41:53;;;;;;;40.58;22.42;;;;;;;;;;4932670;28;20429;-62
2022/03/17 03:44:18;;;;;;;42.92;22.23;;;;;;;;;;4951071;28;20424;-62
2022/03/17 03:46:44;;;;;;;42.63;21.13;;;;;;;;;;4950256;28;20456;-62
2022/03/17 03:49:09;;;;;;;44.28;20.77;;;;;;;;;;4949530;28;20432;-62
2022/03/17 03:51:35;;;;;;;50.35;23.08;;;;;;;;;;4951037;28;20463;-62
2022/03/17 03:54:22;;;;;;;42.38;20.90;;;;;;;;;;4950277;28;20445;-62
2022/03/17 03:56:51;;;;;;;43.80;21.38;;;;;;;;;;4950756;28;20504;-62
2022/03/17 03:59:21;;;;;;;43.55;20.75;;;;;;;;;;4949705;28;20430;-62
2022/03/17 04:01:57;;;;;;;48.00;22.70;;;;;;;;;;4949924;28;20356;-61
2022/03/17 04:04:23;;;;;;;41.85;22.23;;;;;;;;;;4951086;28;20310;-62
2022/03/17 04:06:51;;;;;;;39.55;20.73;;;;;;;;;;4949570;28;20468;-62
2022/03/17 04:09:18;;;;;;;43.58;22.13;;;;;;;;;;4949513;28;20433;-62
2022/03/17 04:11:44;;;;;;;39.92;20.90;;;;;;;;;;4949760;28;20530;-62
2022/03/17 04:14:10;;;;;;;45.58;22.95;;;;;;;;;;4949846;28;20484;-61
2022/03/17 04:16:35;;;;;;;40.20;20.85;;;;;;;;;;4949901;28;20330;-62
2022/03/17 04:19:01;;;;;;;47.15;20.88;;;;;;;;;;4949650;28;20049;-62
2022/03/17 04:21:27;;;;;;;38.83;20.90;;;;;;;;;;4949955;28;20033;-62
2022/03/17 04:23:52;;;;;;;43.17;21.08;;;;;;;;;;4949756;28;20393;-62
2022/03/17 04:26:17;;;;;;;40.05;20.30;;;;;;;;;;4949757;28;20372;-62
2022/03/17 04:28:43;;;;;;;39.58;20.65;;;;;;;;;;4950930;28;20468;-63
2022/03/17 04:31:08;;;;;;;44.20;21.15;;;;;;;;;;4949769;28;20476;-62
2022/03/17 04:33:34;;;;;;;39.60;19.95;;;;;;;;;;4949750;28;20472;-62
2022/03/17 04:36:02;;;;;;;44.78;21.85;;;;;;;;;;4948702;28;20025;-62
2022/03/17 04:38:27;;;;;;;42.17;19.52;;;;;;;;;;4943564;28;20053;-62
2022/03/17 04:40:52;;;;;;;40.45;20.60;;;;;;;;;;4950214;28;20429;-61
2022/03/17 04:43:18;;;;;;;42.50;20.08;;;;;;;;;;4949278;28;20441;-63
2022/03/17 04:45:45;;;;;;;42.95;20.17;;;;;;;;;;4949322;28;20330;-62
2022/03/17 04:48:10;;;;;;;41.05;21.67;;;;;;;;;;4947668;28;20421;-62
2022/03/17 04:50:36;;;;;;;46.50;21.98;;;;;;;;;;4949136;28;20378;-62
2022/03/17 04:55:45;;;;;;;42.65;22.00;;;;;;;;;;4949874;28;20487;-62
2022/03/17 04:58:11;;;;;;;53.78;24.73;;;;;;;;;;4949538;28;20455;-62
2022/03/17 05:00:36;;;;;;;52.95;24.33;;;;;;;;;;4949909;28;20405;-62
2022/03/17 05:03:01;;;;;;;46.08;23.38;;;;;;;;;;4949404;28;20368;-62
2022/03/17 05:05:27;;;;;;;51.55;24.33;;;;;;;;;;4950866;28;20432;-62
2022/03/17 05:07:57;;;;;;;45.58;23.35;;;;;;;;;;4950075;28;20372;-62
2022/03/17 05:10:23;;;;;;;53.55;24.40;;;;;;;;;;4948927;28;20508;-61
2022/03/17 05:12:49;;;;;;;49.92;24.13;;;;;;;;;;4949077;28;20449;-62
2022/03/17 05:15:14;;;;;;;44.22;24.25;;;;;;;;;;4949245;28;20434;-62
2022/03/17 05:17:40;;;;;;;47.20;24.35;;;;;;;;;;4951748;28;20123;-62
2022/03/17 05:20:11;;;;;;;47.97;23.30;;;;;;;;;;4952606;28;20038;-62
2022/03/17 05:22:37;;;;;;;50.17;25.20;;;;;;;;;;4935172;28;20387;-63
2022/03/17 05:25:06;;;;;;;48.17;23.05;;;;;;;;;;4952809;28;20330;-62
2022/03/17 05:27:31;;;;;;;44.13;23.83;;;;;;;;;;4952904;28;20373;-62
2022/03/17 05:29:56;;;;;;;47.22;23.67;;;;;;;;;;4952808;28;20881;-62
2022/03/17 05:32:22;;;;;;;41.05;21.58;;;;;;;;;;4952318;28;20048;-62
2022/03/17 05:34:47;;;;;;;49.13;24.92;;;;;;;;;;4952931;28;20449;-63
2022/03/17 05:37:13;;;;;;;44.60;22.95;;;;;;;;;;4952936;28;20568;-62
2022/03/17 05:39:38;;;;;;;45.67;23.63;;;;;;;;;;4953179;28;20472;-62
2022/03/17 05:42:04;;;;;;;43.88;23.65;;;;;;;;;;4952376;28;20511;-62
2022/03/17 05:44:29;;;;;;;48.42;22.60;;;;;;;;;;4953939;28;20104;-62
2022/03/17 05:46:54;;;;;;;51.53;25.20;;;;;;;;;;4952058;28;20475;-62
2022/03/17 05:49:19;;;;;;;42.47;21.27;;;;;;;;;;4952086;28;20132;-62
2022/03/17 05:51:45;;;;;;;47.05;22.92;;;;;;;;;;4952237;28;20495;-62
2022/03/17 05:54:11;;;;;;;47.53;24.17;;;;;;;;;;4952297;28;20392;-62
2022/03/17 05:56:36;;;;;;;46.40;22.38;;;;;;;;;;4952524;28;20543;-62
2022/03/17 05:59:02;;;;;;;48.78;22.52;;;;;;;;;;4952506;28;20500;-62
2022/03/17 06:01:27;;;;;;;42.83;21.40;;;;;;;;;;4951609;28;20365;-62
2022/03/17 06:03:52;;;;;;;44.08;21.40;;;;;;;;;;4952126;28;20376;-62
2022/03/17 06:06:17;;;;;;;43.88;22.08;;;;;;;;;;4951869;28;20050;-62
2022/03/17 06:08:43;;;;;;;44.55;22.13;;;;;;;;;;4951560;28;20338;-63
2022/03/17 06:11:08;;;;;;;46.60;22.13;;;;;;;;;;4951865;28;20461;-62
2022/03/17 06:13:33;;;;;;;44.25;21.58;;;;;;;;;;4951812;28;20112;-62
2022/03/17 06:15:59;;;;;;;45.00;23.02;;;;;;;;;;4952010;28;20452;-63
2022/03/17 06:18:24;;;;;;;44.95;23.15;;;;;;;;;;4951504;28;20505;-62
2022/03/17 06:20:49;;;;;;;43.05;22.33;;;;;;;;;;4952905;28;20038;-62
2022/03/17 06:23:15;;;;;;;42.53;22.42;;;;;;;;;;4951655;28;20429;-63
2022/03/17 06:25:40;;;;;;;46.13;22.48;;;;;;;;;;4951801;28;20338;-62
2022/03/17 06:28:06;;;;;;;43.20;21.58;;;;;;;;;;4951468;28;20443;-62
2022/03/17 06:30:31;;;;;;;38.05;18.95;;;;;;;;;;4951839;28;20333;-62
2022/03/17 06:32:59;;;;;;;48.90;23.23;;;;;;;;;;4951143;28;20029;-62
2022/03/17 06:35:26;;;;;;;36.30;20.70;;;;;;;;;;4951681;28;20413;-63
2022/03/17 06:37:54;;;;;;;42.70;21.52;;;;;;;;;;4951727;28;20540;-62
2022/03/17 06:40:20;;;;;;;40.42;21.48;;;;;;;;;;4951435;28;20449;-62
2022/03/17 06:42:46;;;;;;;37.50;19.85;;;;;;;;;;4950823;28;20377;-63
2022/03/17 06:45:12;;;;;;;45.55;20.55;;;;;;;;;;4951413;28;20030;-66
2022/03/17 06:47:38;;;;;;;41.33;20.20;;;;;;;;;;4950970;28;20503;-62
2022/03/17 06:50:04;;;;;;;37.85;20.23;;;;;;;;;;4950868;28;20599;-62
2022/03/17 06:52:30;;;;;;;33.83;19.48;;;;;;;;;;4951146;28;20453;-62
2022/03/17 06:54:55;;;;;;;43.50;21.02;;;;;;;;;;4951336;28;20491;-62
2022/03/17 06:57:22;;;;;;;38.60;19.42;;;;;;;;;;4950849;28;20531;-63
2022/03/17 06:59:48;;;;;;;44.00;19.23;;;;;;;;;;4950995;28;20477;-62
2022/03/17 07:02:14;;;;;;;43.80;19.63;;;;;;;;;;4951748;28;20445;-62
2022/03/17 07:04:40;;;;;;;41.42;20.13;;;;;;;;;;4950909;28;20437;-62
2022/03/17 07:07:06;;;;;;;38.08;19.83;;;;;;;;;;4951951;28;20381;-63
2022/03/17 07:09:31;;;;;;;38.70;19.05;;;;;;;;;;4951114;28;20368;-62
2022/03/17 07:11:56;;;;;;;37.65;19.60;;;;;;;;;;4950770;28;20508;-63
2022/03/17 07:14:22;;;;;;;41.92;20.27;;;;;;;;;;4950460;28;20074;-62
2022/03/17 07:16:47;;;;;;;42.70;20.50;;;;;;;;;;4950891;28;20459;-63
2022/03/17 07:19:12;;;;;;;36.45;19.02;;;;;;;;;;4950083;28;20124;-62
2022/03/17 07:21:38;;;;;;;34.72;18.23;;;;;;;;;;4950765;28;20099;-62
2022/03/17 07:24:05;;;;;;;39.72;18.77;;;;;;;;;;4950913;28;20441;-63
2022/03/17 07:26:30;;;;;;;34.95;17.88;;;;;;;;;;4950423;28;20053;-62
2022/03/17 07:28:56;;;;;;;33.10;17.85;;;;;;;;;;4950830;28;20485;-63
2022/03/17 07:31:22;;;;;;;37.65;18.83;;;;;;;;;;4951015;28;20381;-62
2022/03/17 07:33:49;;;;;;;37.78;18.38;;;;;;;;;;4950210;28;20053;-63
2022/03/17 07:36:15;;;;;;;39.00;19.00;;;;;;;;;;4950233;28;20437;-62
2022/03/17 07:38:40;;;;;;;35.45;18.30;;;;;;;;;;4950865;28;20422;-62
2022/03/17 07:41:05;;;;;;;33.67;19.20;;;;;;;;;;4951276;28;20437;-63
2022/03/17 07:43:31;;;;;;;32.42;17.25;;;;;;;;;;4950540;28;20341;-62
2022/03/17 07:45:57;;;;;;;35.47;17.75;;;;;;;;;;4950360;28;20430;-63
2022/03/17 07:48:22;;;;;;;31.15;17.10;;;;;;;;;;4950123;28;20384;-63
2022/03/17 07:50:50;;;;;;;31.20;17.50;;;;;;;;;;4949496;28;20417;-62
2022/03/17 07:53:16;;;;;;;29.80;16.52;;;;;;;;;;4950066;28;20437;-63
2022/03/17 07:55:42;;;;;;;31.42;17.55;;;;;;;;;;4949598;28;20437;-63
2022/03/17 07:58:07;;;;;;;29.90;16.13;;;;;;;;;;4949927;28;20448;-63
2022/03/17 08:00:33;;;;;;;39.70;17.30;;;;;;;;;;4949965;28;20409;-63
2022/03/17 08:02:59;;;;;;;32.95;16.83;;;;;;;;;;4951076;28;20430;-63
2022/03/17 08:05:25;;;;;;;33.05;17.35;;;;;;;;;;4949656;28;20330;-62
2022/03/17 08:07:50;;;;;;;34.30;16.60;;;;;;;;;;4950695;28;20341;-63
2022/03/17 08:10:15;;;;;;;35.60;16.95;;;;;;;;;;4950078;28;20513;-63
2022/03/17 08:12:41;;;;;;;29.92;15.02;;;;;;;;;;4950326;28;20053;-63
2022/03/17 08:15:06;;;;;;;30.27;16.85;;;;;;;;;;4950183;28;20037;-62
2022/03/17 08:17:33;;;;;;;30.52;15.07;;;;;;;;;;4949602;28;20034;-62
2022/03/17 08:19:58;;;;;;;28.63;15.77;;;;;;;;;;4949814;28;20353;-63
2022/03/17 08:22:25;;;;;;;29.83;15.63;;;;;;;;;;4950737;28;20315;-62
2022/03/17 08:24:50;;;;;;;26.92;14.55;;;;;;;;;;4949923;28;20566;-63
2022/03/17 08:27:16;;;;;;;29.20;15.93;;;;;;;;;;4949627;28;20466;-63
2022/03/17 08:29:42;;;;;;;26.77;14.23;;;;;;;;;;4949648;28;20426;-63
2022/03/17 08:32:08;;;;;;;31.45;15.23;;;;;;;;;;4949582;28;20458;-62
2022/03/17 08:34:34;;;;;;;28.20;14.43;;;;;;;;;;4950091;28;20461;-63
2022/03/17 08:36:59;;;;;;;31.98;15.35;;;;;;;;;;4949552;28;20419;-63
2022/03/17 08:39:25;;;;;;;30.20;14.57;;;;;;;;;;4950252;28;20034;-63
2022/03/17 08:41:52;;;;;;;32.70;15.73;;;;;;;;;;4949881;28;20433;-62
2022/03/17 08:44:17;;;;;;;33.40;15.98;;;;;;;;;;4949933;28;20349;-62
2022/03/17 08:49:27;;;;;;;32.03;14.75;;;;;;;;;;4949029;28;20344;-62
2022/03/17 08:51:54;;;;;;;33.92;15.52;;;;;;;;;;4951130;28;20034;-62
2022/03/17 08:54:22;;;;;;;33.28;16.08;;;;;;;;;;4953747;28;20357;-66
2022/03/17 08:56:47;;;;;;;36.90;15.45;;;;;;;;;;4953284;28;20472;-63
2022/03/17 08:59:13;;;;;;;36.80;15.48;;;;;;;;;;4952829;28;20429;-63
2022/03/17 09:01:38;;;;;;;38.80;16.20;;;;;;;;;;4953384;28;20358;-63
2022/03/17 09:04:06;;;;;;;47.22;18.73;;;;;;;;;;4953194;28;20539;-63
2022/03/17 09:06:32;;;;;;;49.60;18.20;;;;;;;;;;4953186;28;20025;-63
2022/03/17 09:08:57;;;;;;;44.20;18.77;;;;;;;;;;4953107;28;20430;-62
2022/03/17 09:11:23;;;;;;;44.65;17.35;;;;;;;;;;4954403;28;20483;-62
2022/03/17 09:13:49;;;;;;;42.90;18.38;;;;;;;;;;4953323;28;20338;-63
2022/03/17 09:16:18;;;;;;;46.15;18.98;;;;;;;;;;4952794;28;20462;-62
2022/03/17 09:18:43;;;;;;;46.10;17.85;;;;;;;;;;4953914;28;20417;-63
2022/03/17 09:21:09;;;;;;;43.97;17.20;;;;;;;;;;4952376;28;20112;-63
2022/03/17 09:23:35;;;;;;;41.80;14.77;;;;;;;;;;4952809;28;20455;-64
2022/03/17 09:26:00;;;;;;;46.42;17.50;;;;;;;;;;4952556;28;20543;-62
2022/03/17 09:28:27;;;;;;;47.75;17.42;;;;;;;;;;4952822;28;20378;-62
2022/03/17 09:30:56;;;;;;;44.00;18.05;;;;;;;;;;4952833;28;20503;-63
2022/03/17 09:33:25;;;;;;;44.30;16.05;;;;;;;;;;4953427;28;20321;-63
2022/03/17 09:35:52;;;;;;;43.38;16.15;;;;;;;;;;4952558;28;20034;-63
2022/03/17 09:38:17;;;;;;;42.22;16.63;;;;;;;;;;4952897;28;20361;-62
2022/03/17 09:40:44;;;;;;;40.13;14.90;;;;;;;;;;4952431;28;20617;-63
2022/03/17 09:43:31;;;;;;;45.28;15.93;;;;;;;;;;4952058;28;20306;-63
2022/03/17 09:45:58;;;;;;;47.10;15.27;;;;;;;;;;4953998;28;20033;-63
2022/03/17 09:48:26;;;;;;;44.42;15.88;;;;;;;;;;4953978;28;20057;-62
2022/03/17 09:50:56;;;;;;;40.78;16.50;;;;;;;;;;4950394;28;20460;-63
2022/03/17 09:53:24;;;;;;;42.33;14.85;;;;;;;;;;4934767;28;20495;-63
2022/03/17 09:55:51;;;;;;;50.38;13.95;;;;;;;;;;4952467;28;20622;-63
2022/03/17 09:58:16;;;;;;;50.90;17.17;;;;;;;;;;4952081;28;20354;-63
2022/03/17 10:00:48;;;;;;;40.72;14.93;;;;;;;;;;4952037;28;20093;-63
2022/03/17 10:03:26;;;;;;;44.85;14.60;;;;;;;;;;4951462;28;20467;-63
2022/03/17 10:05:55;;;;;;;36.17;12.93;;;;;;;;;;4951947;28;20034;-63
2022/03/17 10:08:23;;;;;;;36.95;13.50;;;;;;;;;;4951891;28;20495;-63
2022/03/17 10:10:49;;;;;;;44.67;13.85;;;;;;;;;;4952225;28;20559;-63
2022/03/17 10:13:21;;;;;;;42.42;13.35;;;;;;;;;;4934323;28;20358;-63
2022/03/17 10:16:11;;;;;;;36.22;13.32;;;;;;;;;;4951785;28;20151;-62
2022/03/17 10:18:37;;;;;;;35.97;13.60;;;;;;;;;;4941435;28;20441;-63
2022/03/17 10:21:08;;;;;;;31.50;13.00;;;;;;;;;;4951474;28;20369;-63
2022/03/17 10:23:35;;;;;;;32.95;12.63;;;;;;;;;;4952460;28;20369;-63
2022/03/17 10:26:00;;;;;;;37.42;13.15;;;;;;;;;;4933971;28;20073;-63
2022/03/17 10:28:26;;;;;;;31.90;12.63;;;;;;;;;;4951896;28;20025;-63
2022/03/17 10:31:04;;;;;;;33.78;11.82;;;;;;;;;;4951431;28;20456;-63
2022/03/17 10:33:29;;;;;;;35.42;13.60;;;;;;;;;;4951537;28;20460;-63
2022/03/17 10:36:12;;;;;;;41.65;12.90;;;;;;;;;;4951584;28;20461;-63
2022/03/17 10:38:44;;;;;;;28.85;12.07;;;;;;;;;;4951731;28;20025;-63
2022/03/17 10:41:12;;;;;;;37.55;12.75;;;;;;;;;;4951173;28;20373;-63
2022/03/17 10:43:39;;;;;;;29.08;10.30;;;;;;;;;;4951035;28;20393;-63
2022/03/17 10:46:20;;;;;;;32.20;11.65;;;;;;;;;;4951660;28;20525;-62
2022/03/17 10:49:01;;;;;;;35.83;12.25;;;;;;;;;;4933225;28;20030;-62
2022/03/17 10:51:37;;;;;;;29.10;12.15;;;;;;;;;;4951184;28;20529;-62
2022/03/17 10:54:03;;;;;;;27.52;11.30;;;;;;;;;;4951095;28;20449;-62
2022/03/17 10:56:28;;;;;;;27.33;10.88;;;;;;;;;;4951803;28;20376;-62
2022/03/17 10:58:54;;;;;;;29.45;11.20;;;;;;;;;;4952127;28;20048;-63
2022/03/17 11:01:34;;;;;;;28.75;10.93;;;;;;;;;;4934389;28;20468;-63
2022/03/17 11:04:00;;;;;;;25.60;11.00;;;;;;;;;;4950753;28;20030;-63
2022/03/17 11:06:27;;;;;;;31.52;12.48;;;;;;;;;;4950925;28;20357;-63
2022/03/17 11:08:53;;;;;;;25.70;11.35;;;;;;;;;;4933575;28;20465;-63
2022/03/17 11:11:19;;;;;;;26.20;10.32;;;;;;;;;;4933276;28;20453;-63
2022/03/17 11:13:46;;;;;;;24.08;10.65;;;;;;;;;;4950110;28;20385;-63
2022/03/17 11:16:14;;;;;;;24.92;10.95;;;;;;;;;;4950352;28;20382;-62
2022/03/17 11:18:40;;;;;;;23.55;9.85;;;;;;;;;;4933076;28;20473;-63
2022/03/17 11:21:27;;;;;;;25.42;10.27;;;;;;;;;;4950232;28;20433;-63
2022/03/17 11:23:56;;;;;;;22.52;10.02;;;;;;;;;;4950373;28;20333;-62
2022/03/17 11:26:34;;;;;;;24.23;10.15;;;;;;;;;;4951979;28;20337;-63
2022/03/17 11:29:08;;;;;;;24.17;10.20;;;;;;;;;;4951014;28;20331;-63
2022/03/17 11:31:56;;;;;;;23.15;10.38;;;;;;;;;;4951698;28;20552;-63
2022/03/17 11:34:42;;;;;;;20.27;8.90;;;;;;;;;;4952005;28;20537;-63
2022/03/17 11:37:19;;;;;;;24.48;8.95;;;;;;;;;;4951654;28;20457;-63
2022/03/17 11:39:47;;;;;;;23.17;9.18;;;;;;;;;;4951391;28;20560;-63
2022/03/17 11:43:07;;;;;;;24.05;10.32;;;;;;;;;;4949759;28;20365;-63
2022/03/17 11:45:36;;;;;;;24.23;9.00;;;;;;;;;;4889720;29;20071;-63
2022/03/17 11:48:05;;;;;;;20.13;9.32;;;;;;;;;;4946446;28;20145;-63
2022/03/17 11:50:37;;;;;;;18.27;8.55;;;;;;;;;;4932135;28;20073;-63
2022/03/17 11:53:12;;;;;;;22.83;9.27;;;;;;;;;;4949336;28;20085;-63
2022/03/17 11:55:51;;;;;;;19.90;9.60;;;;;;;;;;4949120;28;20314;-63
2022/03/17 11:58:19;;;;;;;17.50;8.50;;;;;;;;;;4949207;28;20453;-63
2022/03/17 12:00:52;;;;;;;20.40;8.90;;;;;;;;;;4948860;28;20461;-63
2022/03/17 12:03:27;;;;;;;20.83;8.85;;;;;;;;;;4950183;28;20442;-63
2022/03/17 12:06:13;;;;;;;21.05;9.25;;;;;;;;;;4931577;28;20315;-63
2022/03/17 12:08:50;;;;;;;24.95;9.07;;;;;;;;;;4949053;28;20433;-63
2022/03/17 12:11:17;;;;;;;16.55;7.93;;;;;;;;;;4949298;28;20453;-63
2022/03/17 12:14:03;;;;;;;19.70;9.52;;;;;;;;;;4948902;28;20421;-63
2022/03/17 12:16:40;;;;;;;17.42;8.10;;;;;;;;;;4949191;28;20373;-63
2022/03/17 12:19:06;;;;;;;15.60;7.65;;;;;;;;;;4948872;28;20422;-63
2022/03/17 12:22:03;;;;;;;16.30;8.18;;;;;;;;;;4949043;28;20483;-63
2022/03/17 12:24:35;;;;;;;15.63;7.00;;;;;;;;;;4949493;28;20341;-63
2022/03/17 12:27:12;;;;;;;16.45;8.35;;;;;;;;;;4947482;28;20109;-63
2022/03/17 12:29:39;;;;;;;17.95;8.55;;;;;;;;;;4950586;28;20326;-63
2022/03/17 12:32:15;;;;;;;17.77;8.48;;;;;;;;;;4949954;28;20373;-63
2022/03/17 12:34:44;;;;;;;20.25;8.70;;;;;;;;;;4948982;28;20421;-63
2022/03/17 12:37:09;;;;;;;19.38;8.93;;;;;;;;;;4949012;28;20365;-63
2022/03/17 12:39:35;;;;;;;21.55;9.60;;;;;;;;;;4949489;28;20401;-62
2022/03/17 12:42:01;;;;;;;26.65;10.40;;;;;;;;;;4948779;28;20089;-62
2022/03/17 12:44:27;;;;;;;27.08;12.25;;;;;;;;;;4948530;28;20504;-63
2022/03/17 12:46:54;;;;;;;36.85;15.60;;;;;;;;;;4949013;28;20429;-63
2022/03/17 12:49:20;;;;;;;39.45;14.60;;;;;;;;;;4911599;28;1080676;-64
2022/03/17 12:51:46;;;;;;;28.73;13.35;;;;;;;;;;4949265;28;20052;-63
2022/03/17 12:54:13;;;;;;;36.42;13.50;;;;;;;;;;4949706;28;20413;-62
2022/03/17 12:56:49;;;;;;;34.83;12.68;;;;;;;;;;4949793;28;20487;-62
2022/03/17 12:59:14;;;;;;;32.92;12.82;;;;;;;;;;4949291;28;20486;-62
2022/03/17 13:01:41;;;;;;;34.20;13.60;;;;;;;;;;4948980;28;20465;-62
2022/03/17 13:04:06;;;;;;;43.17;15.13;;;;;;;;;;4949516;28;20390;-62
2022/03/17 13:09:16;;;;;;;39.00;13.73;;;;;;;;;;4935591;28;20404;-62
2022/03/17 13:14:26;;;;;;;39.50;14.85;;;;;;;;;;4949915;28;20380;-62
2022/03/17 13:17:02;;;;;;;34.47;14.40;;;;;;;;;;4949230;28;20061;-62
2022/03/17 13:19:27;;;;;;;43.60;15.02;;;;;;;;;;4949728;28;20441;-63
2022/03/17 13:22:05;;;;;;;45.58;14.35;;;;;;;;;;4949313;28;20240;-62
2022/03/17 13:24:31;;;;;;;47.78;13.90;;;;;;;;;;4948808;28;20469;-63
2022/03/17 13:27:00;;;;;;;32.50;12.95;;;;;;;;;;4950741;28;20400;-62
2022/03/17 13:29:26;;;;;;;37.65;13.40;;;;;;;;;;4948879;28;20442;-63
2022/03/17 13:31:52;;;;;;;38.53;14.63;;;;;;;;;;4950885;28;20096;-63
2022/03/17 13:34:33;;;;;;;39.85;14.15;;;;;;;;;;4949414;28;20410;-62
2022/03/17 13:37:01;;;;;;;47.13;15.13;;;;;;;;;;4949113;28;20448;-62
2022/03/17 13:39:34;;;;;;;40.00;13.25;;;;;;;;;;4952388;28;20476;-62
2022/03/17 13:42:13;;;;;;;40.30;12.75;;;;;;;;;;4953028;28;20417;-63
2022/03/17 13:44:45;;;;;;;33.35;12.82;;;;;;;;;;4952533;28;20492;-63
2022/03/17 13:47:22;;;;;;;38.25;13.38;;;;;;;;;;4951994;28;20476;-63
2022/03/17 13:50:23;;;;;;;35.47;12.50;;;;;;;;;;4952615;28;20566;-62
2022/03/17 13:53:03;;;;;;;34.50;11.05;;;;;;;;;;4952128;28;20046;-62
2022/03/17 13:55:39;;;;;;;34.53;11.80;;;;;;;;;;4952626;28;20512;-62
2022/03/17 13:58:26;;;;;;;35.33;12.60;;;;;;;;;;4952855;28;20384;-62
2022/03/17 14:00:54;;;;;;;37.92;12.30;;;;;;;;;;4951691;28;20077;-63
2022/03/17 14:03:22;;;;;;;42.47;12.63;;;;;;;;;;4952122;28;20446;-63
2022/03/17 14:05:59;;;;;;;33.28;11.43;;;;;;;;;;4951890;28;20422;-62
2022/03/17 14:08:25;;;;;;;36.15;12.70;;;;;;;;;;4950406;28;20445;-63
2022/03/17 14:10:51;;;;;;;32.70;10.45;;;;;;;;;;4951925;28;20389;-62
2022/03/17 14:13:17;;;;;;;33.78;11.98;;;;;;;;;;4952105;28;20413;-64
2022/03/17 14:15:43;;;;;;;32.35;11.65;;;;;;;;;;4952017;28;20387;-62
2022/03/17 14:18:09;;;;;;;32.10;11.23;;;;;;;;;;4952432;28;20034;-62
2022/03/17 14:20:34;;;;;;;30.02;10.82;;;;;;;;;;4951445;28;20493;-62
2022/03/17 14:25:45;;;;;;;28.75;10.10;;;;;;;;;;4936635;28;20516;-63
2022/03/17 14:28:10;;;;;;;28.60;10.95;;;;;;;;;;4933836;28;20409;-62
2022/03/17 14:30:35;;;;;;;34.40;11.35;;;;;;;;;;4934691;28;20404;-62
2022/03/17 14:33:01;;;;;;;29.23;10.50;;;;;;;;;;4951577;28;20476;-62
2022/03/17 14:35:26;;;;;;;27.17;9.32;;;;;;;;;;4951380;28;20413;-62
2022/03/17 14:37:51;;;;;;;23.00;9.15;;;;;;;;;;4951532;28;20049;-62
2022/03/17 14:40:17;;;;;;;29.60;9.57;;;;;;;;;;4951073;28;20413;-62
2022/03/17 14:42:43;;;;;;;22.48;8.93;;;;;;;;;;4952557;28;20034;-62
2022/03/17 14:45:08;;;;;;;26.42;10.23;;;;;;;;;;4951477;28;20030;-62